Time;durP1;ratioP1;P1;durP2;ratioP2;P2;SDS_P1;SDS_P2;PMS_P1;PMS_P2;Temp;Humidity;BMP_temperature;BMP_pressure;BME280_temperature;BME280_humidity;BME280_pressure;Samples;Min_cycle;Max_cycle;Signal;HPM_P1;HPM_P2
2022/09/26 00:00:16;;;;;;;1.20;1.20;;;;;;;;;;5140081;27;20203;-64
2022/09/26 00:02:44;;;;;;;1.48;1.38;;;;;;;;;;5128584;27;20636;-64
2022/09/26 00:05:12;;;;;;;1.45;1.35;;;;;;;;;;5118018;28;20210;-64
2022/09/26 00:07:40;;;;;;;1.30;1.20;;;;;;;;;;5119309;28;20203;-64
2022/09/26 00:10:10;;;;;;;1.40;1.30;;;;;;;;;;5118962;28;20553;-64
2022/09/26 00:12:38;;;;;;;1.30;1.20;;;;;;;;;;5119046;28;20261;-65
2022/09/26 00:15:06;;;;;;;1.30;1.20;;;;;;;;;;5118860;28;20198;-64
2022/09/26 00:17:34;;;;;;;1.30;1.20;;;;;;;;;;5118897;28;20206;-64
2022/09/26 00:20:02;;;;;;;1.30;1.20;;;;;;;;;;5124638;27;20238;-65
2022/09/26 00:22:30;;;;;;;1.10;1.10;;;;;;;;;;5139003;27;20234;-66
2022/09/26 00:24:57;;;;;;;1.13;1.13;;;;;;;;;;5139182;27;20223;-65
2022/09/26 00:27:27;;;;;;;1.30;1.20;;;;;;;;;;5138767;27;20198;-65
2022/09/26 00:29:55;;;;;;;1.45;1.35;;;;;;;;;;5139512;27;20210;-64
2022/09/26 00:32:23;;;;;;;1.13;1.13;;;;;;;;;;5138982;27;20202;-64
2022/09/26 00:34:51;;;;;;;1.40;1.30;;;;;;;;;;5139275;27;20209;-64
2022/09/26 00:37:19;;;;;;;1.17;1.10;;;;;;;;;;5139433;27;20257;-66
2022/09/26 00:39:46;;;;;;;1.25;1.15;;;;;;;;;;5138842;27;20298;-65
2022/09/26 00:42:15;;;;;;;1.33;1.23;;;;;;;;;;5138117;27;20195;-65
2022/09/26 00:44:49;;;;;;;1.38;1.27;;;;;;;;;;5138976;27;20226;-65
2022/09/26 00:47:25;;;;;;;1.30;1.23;;;;;;;;;;5138447;27;20288;-64
2022/09/26 00:49:55;;;;;;;1.40;1.30;;;;;;;;;;5139353;27;20225;-65
2022/09/26 00:52:24;;;;;;;1.20;1.10;;;;;;;;;;5138249;27;20283;-66
2022/09/26 00:54:53;;;;;;;1.58;1.48;;;;;;;;;;5138245;27;20268;-65
2022/09/26 00:57:23;;;;;;;1.17;1.10;;;;;;;;;;5138533;27;20202;-66
2022/09/26 00:59:54;;;;;;;1.20;1.10;;;;;;;;;;5138819;27;20237;-64
2022/09/26 01:02:23;;;;;;;1.40;1.30;;;;;;;;;;5137424;27;20194;-65
2022/09/26 01:04:51;;;;;;;1.40;1.30;;;;;;;;;;5138600;27;20667;-64
2022/09/26 01:07:20;;;;;;;1.00;1.00;;;;;;;;;;5138875;27;20402;-65
2022/09/26 01:09:48;;;;;;;1.20;1.10;;;;;;;;;;5138411;27;20604;-64
2022/09/26 01:12:16;;;;;;;1.42;1.33;;;;;;;;;;5137862;27;20194;-64
2022/09/26 01:14:45;;;;;;;1.15;1.05;;;;;;;;;;5138828;27;20209;-64
2022/09/26 01:17:15;;;;;;;1.20;1.10;;;;;;;;;;5138477;27;20202;-64
2022/09/26 01:19:49;;;;;;;1.25;1.15;;;;;;;;;;5134906;27;20631;-64
2022/09/26 01:22:23;;;;;;;1.40;1.30;;;;;;;;;;5117627;28;20195;-64
2022/09/26 01:25:01;;;;;;;1.00;1.00;;;;;;;;;;5118088;28;20234;-64
2022/09/26 01:27:53;;;;;;;1.10;1.10;;;;;;;;;;5117952;28;20238;-64
2022/09/26 01:30:25;;;;;;;1.10;1.10;;;;;;;;;;5098142;28;20204;-64
2022/09/26 01:33:05;;;;;;;1.20;1.00;;;;;;;;;;5126593;28;20254;-65
2022/09/26 01:35:41;;;;;;;1.00;1.00;;;;;;;;;;5138496;28;20558;-64
2022/09/26 01:38:13;;;;;;;1.00;1.00;;;;;;;;;;5138433;28;20202;-64
2022/09/26 01:40:44;;;;;;;1.02;1.02;;;;;;;;;;5138589;28;20237;-64
2022/09/26 01:43:17;;;;;;;1.20;1.10;;;;;;;;;;5126052;28;20257;-64
2022/09/26 01:45:51;;;;;;;1.05;1.05;;;;;;;;;;5117940;28;20217;-64
2022/09/26 01:48:20;;;;;;;1.02;1.02;;;;;;;;;;5117731;28;20203;-64
2022/09/26 01:50:51;;;;;;;1.13;1.13;;;;;;;;;;5118417;28;20252;-64
2022/09/26 01:53:20;;;;;;;0.98;0.98;;;;;;;;;;5117516;28;20203;-64
2022/09/26 01:55:52;;;;;;;1.10;1.10;;;;;;;;;;5117261;28;20287;-64
2022/09/26 01:58:22;;;;;;;1.00;1.00;;;;;;;;;;5117427;28;20230;-65
2022/09/26 02:00:51;;;;;;;1.00;1.00;;;;;;;;;;5117349;28;20214;-64
2022/09/26 02:03:20;;;;;;;0.90;0.90;;;;;;;;;;5117516;28;20214;-64
2022/09/26 02:05:52;;;;;;;1.30;1.20;;;;;;;;;;5117954;28;20234;-64
2022/09/26 02:08:24;;;;;;;1.00;1.00;;;;;;;;;;5117372;28;20260;-65
2022/09/26 02:10:53;;;;;;;1.00;1.00;;;;;;;;;;5116733;28;20203;-65
2022/09/26 02:13:23;;;;;;;1.13;1.10;;;;;;;;;;5117340;28;20214;-66
2022/09/26 02:15:55;;;;;;;0.90;0.90;;;;;;;;;;5117455;28;20280;-65
2022/09/26 02:18:32;;;;;;;0.90;0.90;;;;;;;;;;5117170;28;20257;-65
2022/09/26 02:21:02;;;;;;;1.00;1.00;;;;;;;;;;5131078;28;20245;-64
2022/09/26 02:23:30;;;;;;;1.00;1.00;;;;;;;;;;5137574;27;20213;-64
2022/09/26 02:25:58;;;;;;;1.00;1.00;;;;;;;;;;5137851;27;20229;-64
2022/09/26 02:28:27;;;;;;;0.90;0.90;;;;;;;;;;5139992;27;20298;-64
2022/09/26 02:30:57;;;;;;;1.00;1.00;;;;;;;;;;5141329;27;20234;-65
2022/09/26 02:33:25;;;;;;;0.90;0.90;;;;;;;;;;5140965;27;20209;-64
2022/09/26 02:35:56;;;;;;;1.10;1.00;;;;;;;;;;5141371;27;20213;-65
2022/09/26 02:38:25;;;;;;;1.38;0.90;;;;;;;;;;5141642;27;20570;-65
2022/09/26 02:40:56;;;;;;;0.95;0.95;;;;;;;;;;5141380;27;20201;-65
2022/09/26 02:43:29;;;;;;;0.88;0.88;;;;;;;;;;5141028;27;20248;-64
2022/09/26 02:46:04;;;;;;;1.20;1.10;;;;;;;;;;5141175;27;20199;-64
2022/09/26 02:48:39;;;;;;;1.10;1.10;;;;;;;;;;5141124;27;20263;-64
2022/09/26 02:51:20;;;;;;;0.90;0.90;;;;;;;;;;5141186;27;20667;-64
2022/09/26 02:53:55;;;;;;;0.85;0.85;;;;;;;;;;5140906;27;20297;-65
2022/09/26 02:56:28;;;;;;;0.90;0.90;;;;;;;;;;5140360;27;20217;-64
2022/09/26 02:58:58;;;;;;;1.10;1.10;;;;;;;;;;5141012;27;20210;-64
2022/09/26 03:01:31;;;;;;;0.88;0.88;;;;;;;;;;5140932;27;20210;-64
2022/09/26 03:04:01;;;;;;;1.13;1.02;;;;;;;;;;5140802;27;20226;-64
2022/09/26 03:06:32;;;;;;;1.00;1.00;;;;;;;;;;5141072;27;20315;-64
2022/09/26 03:09:00;;;;;;;0.80;0.80;;;;;;;;;;5140722;27;20217;-65
2022/09/26 03:11:28;;;;;;;0.85;0.85;;;;;;;;;;5140358;27;20213;-64
2022/09/26 03:13:57;;;;;;;1.20;1.10;;;;;;;;;;5140505;27;20198;-65
2022/09/26 03:16:26;;;;;;;0.93;0.93;;;;;;;;;;5140530;27;20263;-64
2022/09/26 03:18:57;;;;;;;0.90;0.90;;;;;;;;;;5140823;27;20202;-64
2022/09/26 03:21:25;;;;;;;0.80;0.77;;;;;;;;;;5140300;27;20488;-64
2022/09/26 03:23:55;;;;;;;0.82;0.82;;;;;;;;;;5140413;27;20316;-65
2022/09/26 03:26:24;;;;;;;1.25;1.20;;;;;;;;;;5140249;27;20580;-64
2022/09/26 03:28:51;;;;;;;0.88;0.88;;;;;;;;;;5140421;27;20283;-65
2022/09/26 03:31:20;;;;;;;0.90;0.90;;;;;;;;;;5139810;27;20234;-64
2022/09/26 03:33:48;;;;;;;0.82;0.82;;;;;;;;;;5139852;27;20574;-65
2022/09/26 03:36:18;;;;;;;0.90;0.90;;;;;;;;;;5140245;27;20202;-64
2022/09/26 03:38:45;;;;;;;1.05;0.95;;;;;;;;;;5140193;27;20203;-64
2022/09/26 03:41:13;;;;;;;0.90;0.90;;;;;;;;;;5139847;27;20229;-64
2022/09/26 03:43:42;;;;;;;0.90;0.90;;;;;;;;;;5140202;27;20206;-66
2022/09/26 03:46:11;;;;;;;1.20;1.10;;;;;;;;;;5139690;27;20339;-65
2022/09/26 03:48:39;;;;;;;1.02;1.00;;;;;;;;;;5139762;27;20586;-65
2022/09/26 03:51:08;;;;;;;1.00;1.00;;;;;;;;;;5138759;27;20198;-65
2022/09/26 03:53:38;;;;;;;0.90;0.90;;;;;;;;;;5139342;27;20538;-65
2022/09/26 03:56:07;;;;;;;1.10;1.10;;;;;;;;;;5139290;27;20206;-65
2022/09/26 03:58:35;;;;;;;1.02;1.02;;;;;;;;;;5139488;27;20209;-64
2022/09/26 04:01:07;;;;;;;0.90;0.90;;;;;;;;;;5139126;27;20205;-64
2022/09/26 04:03:35;;;;;;;1.02;0.93;;;;;;;;;;5139105;27;20210;-64
2022/09/26 04:06:03;;;;;;;1.00;0.90;;;;;;;;;;5139156;27;20218;-64
2022/09/26 04:08:30;;;;;;;1.00;1.00;;;;;;;;;;5139281;27;20300;-64
2022/09/26 04:11:03;;;;;;;0.93;0.93;;;;;;;;;;5138399;27;20285;-64
2022/09/26 04:13:31;;;;;;;1.00;1.00;;;;;;;;;;5138070;27;20281;-65
2022/09/26 04:15:59;;;;;;;0.98;0.98;;;;;;;;;;5137496;27;20540;-65
2022/09/26 04:18:27;;;;;;;1.00;1.00;;;;;;;;;;5139069;27;20241;-65
2022/09/26 04:20:58;;;;;;;0.90;0.90;;;;;;;;;;5139342;27;20233;-65
2022/09/26 04:23:27;;;;;;;0.70;0.70;;;;;;;;;;5139056;27;20485;-65
2022/09/26 04:25:55;;;;;;;0.80;0.80;;;;;;;;;;5138686;27;20226;-64
2022/09/26 04:28:24;;;;;;;0.90;0.90;;;;;;;;;;5138378;27;20213;-64
2022/09/26 04:30:51;;;;;;;1.00;1.00;;;;;;;;;;5137068;27;20203;-64
2022/09/26 04:33:20;;;;;;;1.10;1.10;;;;;;;;;;5137450;27;20288;-64
2022/09/26 04:35:47;;;;;;;0.95;0.90;;;;;;;;;;5137274;27;20305;-64
2022/09/26 04:38:16;;;;;;;0.93;0.93;;;;;;;;;;5136085;27;20297;-64
2022/09/26 04:40:43;;;;;;;1.00;1.00;;;;;;;;;;5136976;27;20198;-64
2022/09/26 04:43:11;;;;;;;0.90;0.90;;;;;;;;;;5137721;27;20234;-64
2022/09/26 04:45:42;;;;;;;0.82;0.82;;;;;;;;;;5137903;27;20257;-64
2022/09/26 04:48:10;;;;;;;0.80;0.80;;;;;;;;;;5137273;27;20201;-64
2022/09/26 04:50:37;;;;;;;0.90;0.90;;;;;;;;;;5135817;27;20634;-64
2022/09/26 04:53:06;;;;;;;0.70;0.70;;;;;;;;;;5136816;27;20579;-64
2022/09/26 04:55:34;;;;;;;0.90;0.90;;;;;;;;;;5136068;27;20202;-65
2022/09/26 04:58:01;;;;;;;0.82;0.82;;;;;;;;;;5135687;27;20194;-65
2022/09/26 05:00:29;;;;;;;0.90;0.90;;;;;;;;;;5136392;27;20202;-65
2022/09/26 05:02:58;;;;;;;0.80;0.80;;;;;;;;;;5136372;27;20235;-64
2022/09/26 05:05:31;;;;;;;0.90;0.90;;;;;;;;;;5133838;27;20217;-64
2022/09/26 05:07:59;;;;;;;0.90;0.90;;;;;;;;;;5135290;27;20231;-64
2022/09/26 05:10:26;;;;;;;0.80;0.80;;;;;;;;;;5134530;27;20474;-64
2022/09/26 05:12:54;;;;;;;0.80;0.80;;;;;;;;;;5134599;27;20205;-64
2022/09/26 05:15:22;;;;;;;0.90;0.90;;;;;;;;;;5134845;27;20639;-64
2022/09/26 05:17:56;;;;;;;0.98;0.90;;;;;;;;;;5135005;27;20241;-64
2022/09/26 05:20:28;;;;;;;0.82;0.82;;;;;;;;;;5133771;27;20233;-65
2022/09/26 05:22:57;;;;;;;0.80;0.80;;;;;;;;;;5135110;27;20210;-65
2022/09/26 05:28:09;;;;;;;0.90;0.90;;;;;;;;;;5133691;27;20196;-65
2022/09/26 05:30:36;;;;;;;0.80;0.80;;;;;;;;;;5135195;28;20233;-65
2022/09/26 05:33:04;;;;;;;0.80;0.70;;;;;;;;;;5135131;27;20240;-64
2022/09/26 05:35:34;;;;;;;0.70;0.70;;;;;;;;;;5135175;27;20228;-64
2022/09/26 05:38:01;;;;;;;1.23;0.90;;;;;;;;;;5134440;27;20297;-64
2022/09/26 05:43:14;;;;;;;1.60;1.50;;;;;;;;;;5135560;27;20342;-66
2022/09/26 05:45:41;;;;;;;4.25;1.60;;;;;;;;;;5133804;27;20236;-65
2022/09/26 05:48:09;;;;;;;4.10;1.92;;;;;;;;;;5134099;28;20199;-65
2022/09/26 05:50:38;;;;;;;3.10;1.70;;;;;;;;;;5133562;27;20209;-64
2022/09/26 05:53:06;;;;;;;3.75;2.05;;;;;;;;;;5134063;27;20190;-64
2022/09/26 05:55:33;;;;;;;4.30;2.00;;;;;;;;;;5134984;28;20194;-64
2022/09/26 05:58:00;;;;;;;6.95;2.38;;;;;;;;;;5134914;28;20306;-64
2022/09/26 06:00:28;;;;;;;5.20;2.70;;;;;;;;;;5135347;28;20289;-65
2022/09/26 06:02:57;;;;;;;4.68;2.50;;;;;;;;;;5136122;27;20194;-64
2022/09/26 06:05:24;;;;;;;6.65;2.42;;;;;;;;;;5138070;27;20257;-64
2022/09/26 06:07:53;;;;;;;7.90;2.88;;;;;;;;;;5138836;27;20289;-64
2022/09/26 06:10:22;;;;;;;5.43;2.60;;;;;;;;;;5139032;27;20553;-64
2022/09/26 06:12:50;;;;;;;6.95;2.80;;;;;;;;;;5139478;27;20228;-64
2022/09/26 06:15:18;;;;;;;7.30;2.85;;;;;;;;;;5138875;27;20279;-64
2022/09/26 06:17:45;;;;;;;5.22;2.92;;;;;;;;;;5138849;27;20213;-64
2022/09/26 06:20:13;;;;;;;5.93;2.67;;;;;;;;;;5138042;27;20226;-64
2022/09/26 06:22:41;;;;;;;6.07;3.15;;;;;;;;;;5138814;27;20202;-64
2022/09/26 06:25:11;;;;;;;5.38;2.85;;;;;;;;;;5139425;27;20272;-64
2022/09/26 06:27:38;;;;;;;5.22;3.15;;;;;;;;;;5139208;27;20332;-64
2022/09/26 06:30:07;;;;;;;7.40;3.00;;;;;;;;;;5140003;27;20674;-65
2022/09/26 06:32:35;;;;;;;7.07;3.15;;;;;;;;;;5139460;27;20202;-65
2022/09/26 06:35:02;;;;;;;6.05;2.95;;;;;;;;;;5138795;27;20198;-64
2022/09/26 06:37:30;;;;;;;5.55;3.00;;;;;;;;;;5138923;27;20209;-65
2022/09/26 06:39:58;;;;;;;8.07;3.28;;;;;;;;;;5138847;27;20701;-64
2022/09/26 06:42:27;;;;;;;6.85;3.08;;;;;;;;;;5138594;27;20199;-65
2022/09/26 06:44:55;;;;;;;4.95;2.92;;;;;;;;;;5139042;27;20225;-64
2022/09/26 06:47:22;;;;;;;6.75;2.90;;;;;;;;;;5136480;27;20598;-64
2022/09/26 06:49:50;;;;;;;6.85;3.20;;;;;;;;;;5138370;27;20237;-64
2022/09/26 06:52:17;;;;;;;7.68;3.42;;;;;;;;;;5138790;27;20234;-65
2022/09/26 06:54:46;;;;;;;6.00;3.33;;;;;;;;;;5137984;27;20202;-66
2022/09/26 06:57:13;;;;;;;7.40;3.25;;;;;;;;;;5138423;27;20310;-66
2022/09/26 06:59:42;;;;;;;5.80;3.10;;;;;;;;;;5138386;27;20199;-65
2022/09/26 07:02:09;;;;;;;4.65;2.67;;;;;;;;;;5137716;27;20203;-65
2022/09/26 07:04:37;;;;;;;6.18;2.95;;;;;;;;;;5138175;27;20263;-64
2022/09/26 07:07:04;;;;;;;6.63;3.58;;;;;;;;;;5138719;27;20735;-66
2022/09/26 07:09:32;;;;;;;5.88;3.00;;;;;;;;;;5138879;27;20199;-66
2022/09/26 07:11:59;;;;;;;7.15;3.20;;;;;;;;;;5137989;27;20206;-64
2022/09/26 07:14:27;;;;;;;7.15;3.20;;;;;;;;;;5136954;27;20721;-65
2022/09/26 07:16:56;;;;;;;7.38;3.33;;;;;;;;;;5138017;27;20237;-64
2022/09/26 07:19:24;;;;;;;6.78;3.30;;;;;;;;;;5137203;27;20202;-64
2022/09/26 07:21:51;;;;;;;5.38;2.78;;;;;;;;;;5137784;27;20523;-65
2022/09/26 07:24:19;;;;;;;6.55;3.10;;;;;;;;;;5138984;27;20194;-65
2022/09/26 07:26:46;;;;;;;5.25;3.20;;;;;;;;;;5137896;27;20622;-64
2022/09/26 07:29:13;;;;;;;5.70;3.00;;;;;;;;;;5137418;27;20247;-64
2022/09/26 07:31:41;;;;;;;5.80;2.92;;;;;;;;;;5137815;27;20289;-66
2022/09/26 07:34:10;;;;;;;5.28;2.70;;;;;;;;;;5138341;27;20241;-64
2022/09/26 07:36:39;;;;;;;5.47;2.85;;;;;;;;;;5138002;27;20208;-65
2022/09/26 07:39:07;;;;;;;5.72;3.35;;;;;;;;;;5137604;27;20203;-66
2022/09/26 07:41:34;;;;;;;6.72;3.35;;;;;;;;;;5136699;27;20293;-65
2022/09/26 07:44:02;;;;;;;5.85;2.72;;;;;;;;;;5137174;27;20234;-65
2022/09/26 07:52:00;;;;;;;5.90;3.17;;;;;;;;;;5136833;27;20189;-65
2022/09/26 07:54:28;;;;;;;5.30;3.00;;;;;;;;;;5136811;27;20206;-65
2022/09/26 07:56:56;;;;;;;6.22;2.92;;;;;;;;;;5136912;27;20198;-64
2022/09/26 07:59:23;;;;;;;6.38;2.92;;;;;;;;;;5135262;27;20633;-66
2022/09/26 08:01:53;;;;;;;4.65;2.70;;;;;;;;;;5136942;27;20224;-65
2022/09/26 08:04:22;;;;;;;4.75;3.00;;;;;;;;;;5136531;27;20678;-66
2022/09/26 08:06:50;;;;;;;4.40;3.03;;;;;;;;;;5133813;27;20224;-64
2022/09/26 08:09:17;;;;;;;5.25;3.13;;;;;;;;;;5135325;27;20194;-64
2022/09/26 08:11:44;;;;;;;6.03;2.95;;;;;;;;;;5136249;27;20259;-64
2022/09/26 08:14:12;;;;;;;4.35;2.60;;;;;;;;;;5136949;27;20202;-64
2022/09/26 08:16:40;;;;;;;4.88;2.72;;;;;;;;;;5136988;27;20293;-64
2022/09/26 08:19:10;;;;;;;3.83;2.65;;;;;;;;;;5136636;27;20799;-64
2022/09/26 08:21:38;;;;;;;4.78;2.65;;;;;;;;;;5136877;27;20222;-64
2022/09/26 08:24:06;;;;;;;4.38;2.72;;;;;;;;;;5137557;27;20574;-66
2022/09/26 08:26:38;;;;;;;5.40;3.30;;;;;;;;;;5135472;27;20415;-66
2022/09/26 08:29:10;;;;;;;4.80;2.60;;;;;;;;;;5136543;27;20597;-64
2022/09/26 08:31:38;;;;;;;4.28;2.75;;;;;;;;;;5137077;27;20198;-64
2022/09/26 08:34:05;;;;;;;4.97;2.55;;;;;;;;;;5135842;27;20559;-64
2022/09/26 08:36:35;;;;;;;5.30;3.03;;;;;;;;;;5136597;27;20233;-64
2022/09/26 08:39:04;;;;;;;5.95;2.88;;;;;;;;;;5136347;27;20469;-64
2022/09/26 08:41:40;;;;;;;5.10;2.42;;;;;;;;;;5137643;27;20205;-65
2022/09/26 08:44:19;;;;;;;4.18;2.70;;;;;;;;;;5136848;27;20275;-66
2022/09/26 08:46:53;;;;;;;3.50;2.50;;;;;;;;;;5136812;27;20540;-65
2022/09/26 08:49:27;;;;;;;4.03;2.70;;;;;;;;;;5136280;27;20202;-65
2022/09/26 08:51:56;;;;;;;3.83;2.65;;;;;;;;;;5136339;27;20198;-65
2022/09/26 08:54:29;;;;;;;3.95;2.60;;;;;;;;;;5136466;27;20257;-65
2022/09/26 08:56:58;;;;;;;3.92;2.78;;;;;;;;;;5135977;27;20293;-65
2022/09/26 08:59:31;;;;;;;4.15;2.45;;;;;;;;;;5133909;27;20268;-65
2022/09/26 09:02:00;;;;;;;3.85;2.45;;;;;;;;;;5134972;27;20198;-65
2022/09/26 09:04:33;;;;;;;4.63;2.55;;;;;;;;;;5134055;27;20724;-65
2022/09/26 09:07:05;;;;;;;3.92;2.42;;;;;;;;;;5135315;27;20287;-65
2022/09/26 09:09:34;;;;;;;3.67;2.50;;;;;;;;;;5134729;27;20805;-66
2022/09/26 09:12:09;;;;;;;3.75;2.50;;;;;;;;;;5135025;27;20195;-66
2022/09/26 09:14:44;;;;;;;4.35;2.63;;;;;;;;;;5135424;27;20688;-65
2022/09/26 09:17:16;;;;;;;2.95;2.30;;;;;;;;;;5140580;27;20217;-65
2022/09/26 09:19:49;;;;;;;2.78;2.08;;;;;;;;;;5140150;27;20297;-65
2022/09/26 09:22:43;;;;;;;4.15;2.40;;;;;;;;;;5155952;27;20897;-65
2022/09/26 09:25:15;;;;;;;4.43;2.40;;;;;;;;;;5133552;27;20265;-65
2022/09/26 09:27:47;;;;;;;2.65;2.20;;;;;;;;;;5144934;27;20288;-65
2022/09/26 09:30:20;;;;;;;4.13;2.58;;;;;;;;;;5134504;27;20292;-65
2022/09/26 09:32:49;;;;;;;3.03;2.13;;;;;;;;;;5133461;28;20272;-65
2022/09/26 09:35:18;;;;;;;2.80;2.13;;;;;;;;;;5134601;28;20296;-65
2022/09/26 09:37:48;;;;;;;2.67;2.00;;;;;;;;;;5137614;27;20198;-65
2022/09/26 09:40:22;;;;;;;2.97;1.92;;;;;;;;;;5139131;27;20594;-65
2022/09/26 09:42:51;;;;;;;2.42;2.08;;;;;;;;;;5138011;27;20693;-65
2022/09/26 09:45:20;;;;;;;2.55;2.20;;;;;;;;;;5138112;27;20601;-65
2022/09/26 09:47:48;;;;;;;3.03;1.95;;;;;;;;;;5138728;27;20560;-65
2022/09/26 09:50:16;;;;;;;2.60;1.95;;;;;;;;;;5137563;27;20293;-65
2022/09/26 09:52:48;;;;;;;2.50;1.85;;;;;;;;;;5138258;27;20217;-65
2022/09/26 09:55:26;;;;;;;3.45;1.90;;;;;;;;;;5137273;27;20282;-65
2022/09/26 09:58:11;;;;;;;2.80;2.08;;;;;;;;;;5138920;27;20194;-65
2022/09/26 10:00:41;;;;;;;3.08;2.17;;;;;;;;;;5137684;27;20237;-65
2022/09/26 10:03:13;;;;;;;4.07;2.00;;;;;;;;;;5138242;27;20202;-65
2022/09/26 10:05:42;;;;;;;2.65;1.90;;;;;;;;;;5138581;27;20202;-65
2022/09/26 10:08:14;;;;;;;2.70;1.98;;;;;;;;;;5138816;27;20198;-65
2022/09/26 10:10:46;;;;;;;2.83;1.90;;;;;;;;;;5137786;27;20651;-65
2022/09/26 10:13:14;;;;;;;2.58;1.85;;;;;;;;;;5137063;27;20241;-65
2022/09/26 10:15:44;;;;;;;2.08;1.77;;;;;;;;;;5137071;27;20202;-65
2022/09/26 10:18:16;;;;;;;2.15;1.50;;;;;;;;;;5137442;27;20226;-65
2022/09/26 10:20:52;;;;;;;3.03;1.73;;;;;;;;;;5136516;27;20276;-65
2022/09/26 10:23:22;;;;;;;3.90;1.77;;;;;;;;;;5137744;27;20197;-65
2022/09/26 10:25:52;;;;;;;3.63;1.80;;;;;;;;;;5139110;27;20297;-65
2022/09/26 10:28:28;;;;;;;2.90;1.88;;;;;;;;;;5137386;27;20202;-65
2022/09/26 10:31:00;;;;;;;2.38;1.60;;;;;;;;;;5138196;27;20266;-65
2022/09/26 10:33:29;;;;;;;2.92;1.70;;;;;;;;;;5137921;27;20291;-65
2022/09/26 10:36:03;;;;;;;2.95;1.70;;;;;;;;;;5137588;27;20500;-65
2022/09/26 10:38:31;;;;;;;3.28;1.75;;;;;;;;;;5137432;27;20209;-66
2022/09/26 10:41:00;;;;;;;2.83;1.70;;;;;;;;;;5138151;27;20784;-65
2022/09/26 10:43:29;;;;;;;2.92;1.83;;;;;;;;;;5137642;27;20296;-65
2022/09/26 10:46:02;;;;;;;4.07;2.03;;;;;;;;;;5137440;27;20653;-65
2022/09/26 10:48:37;;;;;;;2.72;1.80;;;;;;;;;;5136266;27;20201;-65
2022/09/26 10:51:06;;;;;;;3.25;1.60;;;;;;;;;;5137651;27;20198;-65
2022/09/26 10:53:36;;;;;;;3.78;1.63;;;;;;;;;;5137749;27;20306;-65
2022/09/26 10:56:07;;;;;;;2.22;1.83;;;;;;;;;;5136853;27;20293;-65
2022/09/26 10:58:39;;;;;;;3.17;1.77;;;;;;;;;;5136767;27;20202;-65
2022/09/26 11:01:07;;;;;;;2.92;1.80;;;;;;;;;;5137429;27;20202;-65
2022/09/26 11:03:39;;;;;;;2.90;1.70;;;;;;;;;;5136857;27;20433;-65
2022/09/26 11:06:21;;;;;;;2.30;1.63;;;;;;;;;;5137007;27;20271;-65
2022/09/26 11:08:50;;;;;;;3.45;1.70;;;;;;;;;;5137084;27;20251;-66
2022/09/26 11:11:21;;;;;;;4.25;1.90;;;;;;;;;;5148423;27;20251;-65
2022/09/26 11:14:02;;;;;;;2.45;1.90;;;;;;;;;;5158099;27;20227;-65
2022/09/26 11:16:30;;;;;;;2.97;1.80;;;;;;;;;;5116852;28;20290;-66
2022/09/26 11:19:00;;;;;;;2.00;1.60;;;;;;;;;;5116067;28;20263;-65
2022/09/26 11:21:31;;;;;;;2.88;1.90;;;;;;;;;;5115696;28;20326;-65
2022/09/26 11:24:02;;;;;;;2.50;2.00;;;;;;;;;;5116129;28;20778;-66
2022/09/26 11:26:34;;;;;;;3.33;1.90;;;;;;;;;;5116108;28;20277;-66
2022/09/26 11:29:07;;;;;;;2.10;1.73;;;;;;;;;;5115304;28;20195;-65
2022/09/26 11:31:36;;;;;;;3.20;1.85;;;;;;;;;;5116743;28;20287;-66
2022/09/26 11:34:04;;;;;;;2.25;1.80;;;;;;;;;;5116114;28;20211;-65
2022/09/26 11:36:38;;;;;;;3.45;1.60;;;;;;;;;;5115846;28;20294;-65
2022/09/26 11:39:12;;;;;;;3.50;1.95;;;;;;;;;;5114182;28;20306;-65
2022/09/26 11:41:47;;;;;;;2.30;1.70;;;;;;;;;;5125407;27;20229;-64
2022/09/26 11:44:30;;;;;;;2.33;1.83;;;;;;;;;;5135739;27;20266;-65
2022/09/26 11:47:08;;;;;;;2.42;1.50;;;;;;;;;;5118944;27;20256;-65
2022/09/26 11:49:47;;;;;;;2.38;1.67;;;;;;;;;;5136010;27;20267;-64
2022/09/26 11:52:20;;;;;;;2.38;1.67;;;;;;;;;;5136388;27;20738;-66
2022/09/26 11:54:57;;;;;;;2.03;1.60;;;;;;;;;;5136333;27;20244;-64
2022/09/26 11:57:35;;;;;;;2.10;1.55;;;;;;;;;;5135812;27;20190;-64
2022/09/26 12:00:06;;;;;;;1.92;1.60;;;;;;;;;;5136077;27;20205;-64
2022/09/26 12:02:41;;;;;;;2.67;1.83;;;;;;;;;;5135439;27;20302;-65
2022/09/26 12:05:23;;;;;;;3.03;1.90;;;;;;;;;;5135713;27;20233;-66
2022/09/26 12:07:57;;;;;;;2.47;1.80;;;;;;;;;;5135855;27;20311;-66
2022/09/26 12:10:30;;;;;;;2.45;1.75;;;;;;;;;;5124716;27;20659;-65
2022/09/26 12:13:10;;;;;;;2.13;1.63;;;;;;;;;;5135548;27;20202;-65
2022/09/26 12:15:40;;;;;;;2.40;1.73;;;;;;;;;;5136004;27;20731;-66
2022/09/26 12:18:14;;;;;;;2.72;1.83;;;;;;;;;;5135781;27;20229;-65
2022/09/26 12:20:48;;;;;;;2.72;1.67;;;;;;;;;;5135318;27;20753;-65
2022/09/26 12:23:21;;;;;;;3.15;1.90;;;;;;;;;;5135408;27;20202;-65
2022/09/26 12:25:58;;;;;;;2.10;1.80;;;;;;;;;;5134176;27;20206;-64
2022/09/26 12:28:42;;;;;;;2.40;1.70;;;;;;;;;;5135148;27;20222;-66
2022/09/26 12:31:12;;;;;;;2.15;1.65;;;;;;;;;;5134330;27;20637;-66
2022/09/26 12:34:01;;;;;;;2.63;1.70;;;;;;;;;;5134110;27;20206;-65
2022/09/26 12:36:39;;;;;;;2.97;1.80;;;;;;;;;;5134483;27;20610;-65
2022/09/26 12:39:16;;;;;;;2.60;1.88;;;;;;;;;;5134089;27;20202;-65
2022/09/26 12:41:53;;;;;;;1.90;1.70;;;;;;;;;;5134668;27;20240;-64
2022/09/26 12:44:38;;;;;;;2.13;1.60;;;;;;;;;;5134241;27;20201;-65
2022/09/26 12:47:14;;;;;;;2.13;1.60;;;;;;;;;;5134974;27;20411;-65
2022/09/26 12:49:57;;;;;;;3.83;1.83;;;;;;;;;;5134275;27;20198;-64
2022/09/26 12:52:31;;;;;;;1.73;1.48;;;;;;;;;;5134432;27;20236;-64
2022/09/26 12:55:04;;;;;;;2.90;1.95;;;;;;;;;;5133752;27;20689;-64
2022/09/26 12:57:37;;;;;;;2.80;1.92;;;;;;;;;;5134016;27;20198;-64
2022/09/26 13:00:11;;;;;;;1.92;1.70;;;;;;;;;;5133455;27;20197;-64
2022/09/26 13:02:57;;;;;;;1.90;1.60;;;;;;;;;;5133582;27;20203;-64
2022/09/26 13:05:38;;;;;;;2.00;1.70;;;;;;;;;;5134845;27;20198;-64
2022/09/26 13:08:11;;;;;;;2.15;1.50;;;;;;;;;;5133859;27;20291;-65
2022/09/26 13:10:40;;;;;;;1.83;1.40;;;;;;;;;;5132440;27;20225;-64
2022/09/26 13:13:21;;;;;;;1.65;1.50;;;;;;;;;;5133343;27;20198;-65
2022/09/26 13:15:53;;;;;;;2.22;1.52;;;;;;;;;;5134799;27;20209;-66
2022/09/26 13:18:25;;;;;;;2.00;1.77;;;;;;;;;;5133977;27;20195;-65
2022/09/26 13:20:54;;;;;;;2.30;1.52;;;;;;;;;;5119806;27;20239;-65
2022/09/26 13:23:26;;;;;;;1.98;1.50;;;;;;;;;;5112958;28;20292;-66
2022/09/26 13:25:55;;;;;;;2.65;1.65;;;;;;;;;;5113316;28;20575;-64
2022/09/26 13:28:24;;;;;;;2.28;1.60;;;;;;;;;;5111816;28;20707;-66
2022/09/26 13:30:54;;;;;;;2.45;1.70;;;;;;;;;;5111962;28;20191;-64
2022/09/26 13:33:27;;;;;;;2.25;1.83;;;;;;;;;;5112602;28;20207;-66
2022/09/26 13:35:56;;;;;;;2.13;1.85;;;;;;;;;;5112414;28;20297;-65
2022/09/26 13:38:32;;;;;;;1.90;1.58;;;;;;;;;;5112350;28;20191;-65
2022/09/26 13:41:04;;;;;;;2.10;1.67;;;;;;;;;;5112320;28;20693;-66
2022/09/26 13:43:47;;;;;;;1.88;1.45;;;;;;;;;;5112679;28;20260;-65
2022/09/26 13:46:21;;;;;;;2.50;1.90;;;;;;;;;;5113013;28;20195;-65
2022/09/26 13:48:59;;;;;;;2.17;1.70;;;;;;;;;;5114408;28;20226;-64
2022/09/26 13:51:31;;;;;;;1.70;1.50;;;;;;;;;;5113525;28;20620;-65
2022/09/26 13:54:02;;;;;;;2.10;1.85;;;;;;;;;;5112515;28;20201;-64
2022/09/26 13:56:40;;;;;;;2.55;1.50;;;;;;;;;;5114032;28;20202;-65
2022/09/26 13:59:24;;;;;;;2.40;1.55;;;;;;;;;;5113416;28;20201;-64
2022/09/26 14:02:10;;;;;;;2.13;1.60;;;;;;;;;;5113959;28;20471;-64
2022/09/26 14:04:39;;;;;;;1.85;1.38;;;;;;;;;;5113851;28;20797;-65
2022/09/26 14:10:14;;;;;;;2.58;1.70;;;;;;;;;;5112901;28;20197;-66
2022/09/26 14:12:53;;;;;;;2.63;1.58;;;;;;;;;;5113277;28;20733;-65
2022/09/26 14:15:22;;;;;;;2.47;1.60;;;;;;;;;;5112948;28;20290;-65
2022/09/26 14:18:05;;;;;;;2.60;1.73;;;;;;;;;;5112463;28;20290;-65
2022/09/26 14:20:37;;;;;;;1.65;1.48;;;;;;;;;;5113560;28;20227;-64
2022/09/26 14:23:04;;;;;;;1.88;1.45;;;;;;;;;;5113580;28;20575;-64
2022/09/26 14:25:50;;;;;;;1.90;1.65;;;;;;;;;;5116676;28;20579;-65
2022/09/26 14:28:22;;;;;;;1.70;1.42;;;;;;;;;;5116917;28;20751;-66
2022/09/26 14:31:09;;;;;;;1.63;1.50;;;;;;;;;;5116239;28;20238;-66
2022/09/26 14:33:37;;;;;;;3.17;1.60;;;;;;;;;;5117118;28;20199;-66
2022/09/26 14:36:26;;;;;;;2.20;1.83;;;;;;;;;;5116850;28;20293;-66
2022/09/26 14:38:54;;;;;;;1.50;1.40;;;;;;;;;;5116577;28;20226;-66
2022/09/26 14:41:22;;;;;;;1.73;1.38;;;;;;;;;;5116704;28;20210;-66
2022/09/26 14:43:51;;;;;;;1.67;1.50;;;;;;;;;;5116850;28;20207;-66
2022/09/26 14:46:20;;;;;;;2.58;1.90;;;;;;;;;;5116400;28;20199;-65
2022/09/26 14:48:48;;;;;;;3.00;1.52;;;;;;;;;;5115832;28;20272;-65
2022/09/26 14:51:30;;;;;;;2.20;1.70;;;;;;;;;;5116145;28;20283;-66
2022/09/26 14:54:00;;;;;;;2.40;1.63;;;;;;;;;;5115651;28;20206;-65
2022/09/26 14:56:36;;;;;;;1.77;1.65;;;;;;;;;;5115970;28;20237;-66
2022/09/26 14:59:26;;;;;;;2.88;1.85;;;;;;;;;;5117163;28;20194;-66
2022/09/26 15:01:55;;;;;;;2.90;1.55;;;;;;;;;;5117187;28;20211;-65
2022/09/26 15:04:24;;;;;;;2.28;1.58;;;;;;;;;;5116200;28;20214;-65
2022/09/26 15:06:53;;;;;;;1.80;1.70;;;;;;;;;;5117102;28;20210;-66
2022/09/26 15:09:24;;;;;;;2.75;1.65;;;;;;;;;;5117720;28;20226;-66
2022/09/26 15:11:54;;;;;;;2.85;1.50;;;;;;;;;;5115413;28;20198;-66
2022/09/26 15:14:25;;;;;;;1.92;1.45;;;;;;;;;;5116472;28;20649;-65
2022/09/26 15:16:55;;;;;;;1.92;1.70;;;;;;;;;;5115683;28;20203;-65
2022/09/26 15:19:24;;;;;;;2.47;1.80;;;;;;;;;;5115717;27;20207;-65